createdAt,value
2018-11-13T00:00:45.146Z,97.03
2018-11-13T00:03:13.609Z,96.51
2018-11-13T00:05:42.068Z,96.79
2018-11-13T00:08:10.474Z,96.70
2018-11-13T00:10:39.020Z,96.88
2018-11-13T00:13:07.499Z,96.60
2018-11-13T00:15:36.009Z,97.18
2018-11-13T00:18:05.884Z,96.70
2018-11-13T00:20:34.554Z,96.61
2018-11-13T00:23:03.460Z,96.96
2018-11-13T00:25:32.415Z,97.05
2018-11-13T00:28:00.839Z,96.85
2018-11-13T00:30:29.735Z,97.15
2018-11-13T00:32:58.183Z,97.40
2018-11-13T00:35:26.639Z,97.47
2018-11-13T00:37:55.288Z,97.34
2018-11-13T00:40:23.697Z,96.89
2018-11-13T00:42:52.138Z,97.35
2018-11-13T00:45:22.864Z,96.55
2018-11-13T00:47:51.712Z,97.13
2018-11-13T00:50:20.934Z,97.55
2018-11-13T00:52:49.792Z,96.84
2018-11-13T00:55:18.439Z,97.50
2018-11-13T00:57:46.961Z,97.00
2018-11-13T01:00:17.766Z,97.24
2018-11-13T01:02:46.411Z,96.94
2018-11-13T01:05:16.223Z,97.01
2018-11-13T01:07:45.797Z,96.85
2018-11-13T01:10:15.497Z,97.33
2018-11-13T01:12:44.913Z,96.81
2018-11-13T01:15:14.426Z,97.42
2018-11-13T01:17:43.847Z,97.20
2018-11-13T01:20:12.472Z,96.71
2018-11-13T01:22:40.949Z,96.88
2018-11-13T01:25:10.562Z,97.19
2018-11-13T01:27:38.984Z,97.41
2018-11-13T01:30:09.063Z,97.11
2018-11-13T01:32:39.055Z,96.86
2018-11-13T01:35:09.297Z,96.97
2018-11-13T01:37:37.735Z,97.20
2018-11-13T01:40:08.894Z,97.68
2018-11-13T01:42:37.341Z,97.03
2018-11-13T01:45:07.396Z,97.52
2018-11-13T01:47:35.895Z,97.38
2018-11-13T01:50:04.434Z,97.39
2018-11-13T01:52:33.080Z,97.43
2018-11-13T01:55:01.376Z,97.09
2018-11-13T01:57:29.813Z,97.69
2018-11-13T01:59:58.290Z,97.31
2018-11-13T02:02:26.707Z,97.45
2018-11-13T02:04:55.174Z,97.18
2018-11-13T02:07:23.645Z,97.64
2018-11-13T02:09:52.102Z,97.29
2018-11-13T02:12:20.577Z,97.76
2018-11-13T02:14:48.977Z,97.45
2018-11-13T02:17:17.441Z,97.38
2018-11-13T02:19:45.849Z,98.14
2018-11-13T02:22:14.324Z,97.91
2018-11-13T02:24:42.832Z,97.91
2018-11-13T02:27:11.269Z,97.29
2018-11-13T02:29:39.649Z,97.56
2018-11-13T02:32:08.093Z,97.64
2018-11-13T02:34:36.573Z,97.98
2018-11-13T02:37:05.002Z,97.44
2018-11-13T02:39:33.435Z,97.40
2018-11-13T02:42:01.858Z,97.58
2018-11-13T02:44:30.268Z,97.71
2018-11-13T02:46:58.749Z,97.67
2018-11-13T02:49:27.200Z,97.56
2018-11-13T02:51:55.631Z,97.53
2018-11-13T02:54:24.016Z,97.48
2018-11-13T02:56:52.393Z,97.68
2018-11-13T02:59:20.940Z,98.25
2018-11-13T03:01:49.323Z,97.65
2018-11-13T03:04:17.744Z,98.46
2018-11-13T03:06:46.142Z,98.01
2018-11-13T03:09:14.638Z,97.85
2018-11-13T03:11:43.035Z,97.34
2018-11-13T03:14:11.575Z,98.10
2018-11-13T03:16:39.952Z,98.01
2018-11-13T03:19:08.362Z,97.47
2018-11-13T03:21:36.776Z,97.67
2018-11-13T03:24:05.459Z,98.05
2018-11-13T03:26:33.845Z,98.32
2018-11-13T03:29:02.285Z,97.78
2018-11-13T03:31:30.893Z,98.39
2018-11-13T03:33:59.220Z,98.26
2018-11-13T03:36:27.758Z,97.94
2018-11-13T03:38:56.167Z,98.28
2018-11-13T03:41:24.701Z,98.12
2018-11-13T03:43:53.100Z,97.94
2018-11-13T03:46:21.587Z,97.96
2018-11-13T03:48:50.006Z,97.91
2018-11-13T03:51:18.512Z,98.35
2018-11-13T03:53:46.952Z,98.31
2018-11-13T03:56:15.376Z,98.36
2018-11-13T03:58:43.776Z,98.23
2018-11-13T04:01:12.226Z,98.92
2018-11-13T04:03:40.605Z,98.16
2018-11-13T04:06:09.114Z,98.96
2018-11-13T04:08:37.553Z,98.36
2018-11-13T04:11:06.405Z,98.37
2018-11-13T04:13:34.852Z,98.15
2018-11-13T04:16:03.287Z,98.91
2018-11-13T04:18:31.787Z,98.79
2018-11-13T04:21:00.243Z,98.60
2018-11-13T04:23:28.660Z,98.76
2018-11-13T04:25:57.121Z,98.48
2018-11-13T04:28:25.555Z,98.32
2018-11-13T04:30:54.026Z,98.12
2018-11-13T04:33:22.389Z,98.18
2018-11-13T04:35:50.845Z,98.68
2018-11-13T04:38:19.291Z,98.52
2018-11-13T04:40:48.045Z,98.35
2018-11-13T04:43:16.480Z,98.52
2018-11-13T04:45:44.889Z,98.51
2018-11-13T04:48:13.310Z,97.93
2018-11-13T04:53:23.445Z,97.76
2018-11-13T04:55:51.896Z,98.25
2018-11-13T04:58:20.342Z,97.97
2018-11-13T05:00:48.925Z,96.95
2018-11-13T05:03:17.328Z,96.99
2018-11-13T05:05:45.728Z,96.71
2018-11-13T05:08:14.134Z,97.48
2018-11-13T05:10:42.570Z,97.59
2018-11-13T05:13:10.984Z,96.95
2018-11-13T05:15:39.352Z,97.51
2018-11-13T05:18:07.776Z,97.19
2018-11-13T05:20:36.194Z,97.05
2018-11-13T05:23:05.040Z,97.29
2018-11-13T05:25:33.464Z,96.66
2018-11-13T05:28:01.865Z,97.21
2018-11-13T05:30:30.485Z,96.26
2018-11-13T05:32:58.921Z,96.41
2018-11-13T05:35:27.358Z,96.16
2018-11-13T05:37:55.734Z,95.83
2018-11-13T05:40:25.157Z,96.54
2018-11-13T05:42:53.594Z,96.06
2018-11-13T05:45:23.559Z,96.44
2018-11-13T05:47:51.980Z,96.50
2018-11-13T05:50:20.796Z,96.41
2018-11-13T05:52:50.723Z,96.13
2018-11-13T05:55:19.163Z,95.67
2018-11-13T05:57:47.818Z,95.87
2018-11-13T06:00:19.106Z,95.90
2018-11-13T06:02:47.577Z,95.39
2018-11-13T06:05:16.047Z,95.71
2018-11-13T06:07:44.500Z,96.28
2018-11-13T06:10:13.349Z,95.41
2018-11-13T06:12:42.041Z,95.32
2018-11-13T06:15:10.806Z,95.15
2018-11-13T06:17:39.227Z,95.62
2018-11-13T06:20:09.420Z,95.38
2018-11-13T06:22:37.914Z,95.20
2018-11-13T06:25:07.861Z,95.50
2018-11-13T06:27:36.668Z,95.38
2018-11-13T06:30:07.998Z,94.81
2018-11-13T06:32:36.463Z,94.76
2018-11-13T06:35:05.272Z,94.42
2018-11-13T06:37:33.666Z,95.21
2018-11-13T06:40:02.115Z,95.35
2018-11-13T06:42:30.529Z,94.94
2018-11-13T06:44:58.977Z,95.12
2018-11-13T06:47:27.446Z,94.99
2018-11-13T06:49:55.913Z,95.09
2018-11-13T06:52:24.438Z,95.06
2018-11-13T06:55:03.173Z,95.32
2018-11-13T06:57:32.519Z,95.16
2018-11-13T07:00:01.627Z,95.35
2018-11-13T07:02:30.112Z,95.42
2018-11-13T07:04:58.800Z,95.52
2018-11-13T07:07:27.198Z,95.32
2018-11-13T07:09:55.807Z,94.85
2018-11-13T07:12:24.264Z,95.24
2018-11-13T07:14:52.752Z,94.76
2018-11-13T07:17:21.204Z,94.55
2018-11-13T07:19:50.693Z,94.98
2018-11-13T07:22:19.143Z,94.09
2018-11-13T07:24:47.656Z,94.27
2018-11-13T07:27:16.200Z,93.81
2018-11-13T07:29:44.573Z,93.58
2018-11-13T07:32:13.164Z,93.15
2018-11-13T07:34:41.622Z,93.70
2018-11-13T07:37:10.047Z,93.33
2018-11-13T07:39:38.505Z,91.45
2018-11-13T07:42:06.973Z,92.08
2018-11-13T07:44:35.445Z,90.99
2018-11-13T07:47:03.937Z,91.73
2018-11-13T07:49:32.362Z,90.42
2018-11-13T07:52:01.148Z,90.28
2018-11-13T07:54:29.985Z,89.22
2018-11-13T07:56:58.434Z,89.06
2018-11-13T07:59:26.876Z,88.73
2018-11-13T08:01:55.345Z,88.59
2018-11-13T08:04:23.797Z,88.56
2018-11-13T08:06:52.344Z,88.12
2018-11-13T08:09:20.727Z,88.54
2018-11-13T08:11:49.220Z,87.54
2018-11-13T08:14:17.703Z,87.24
2018-11-13T08:16:46.154Z,87.10
2018-11-13T08:19:14.603Z,87.52
2018-11-13T08:21:43.098Z,87.87
2018-11-13T08:24:11.547Z,88.51
2018-11-13T08:26:40.013Z,89.13
2018-11-13T08:29:08.478Z,88.04
2018-11-13T08:31:36.884Z,88.88
2018-11-13T08:34:05.780Z,89.02
2018-11-13T08:36:34.233Z,87.79
2018-11-13T08:39:03.120Z,87.83
2018-11-13T08:41:31.558Z,88.17
2018-11-13T08:44:00.063Z,88.24
2018-11-13T08:46:28.451Z,88.78
2018-11-13T08:48:56.932Z,88.42
2018-11-13T08:51:25.591Z,87.79
2018-11-13T08:53:54.156Z,87.61
2018-11-13T08:56:22.591Z,86.97
2018-11-13T08:58:51.210Z,86.54
2018-11-13T09:01:19.652Z,86.09
2018-11-13T09:03:48.123Z,85.92
2018-11-13T09:06:16.609Z,85.68
2018-11-13T09:08:45.034Z,85.34
2018-11-13T09:11:13.552Z,84.07
2018-11-13T09:13:41.893Z,84.54
2018-11-13T09:16:10.288Z,84.38
2018-11-13T09:18:38.843Z,83.96
2018-11-13T09:21:07.356Z,84.28
2018-11-13T09:23:35.785Z,83.86
2018-11-13T09:26:05.242Z,83.22
2018-11-13T09:28:33.783Z,83.90
2018-11-13T09:31:02.363Z,83.01
2018-11-13T09:33:30.802Z,83.67
2018-11-13T09:35:59.188Z,83.22
2018-11-13T09:38:27.653Z,82.42
2018-11-13T09:40:56.081Z,83.07
2018-11-13T09:43:24.582Z,82.40
2018-11-13T09:45:53.096Z,82.64
2018-11-13T09:48:21.581Z,81.94
2018-11-13T09:50:50.291Z,82.52
2018-11-13T09:53:18.635Z,81.12
2018-11-13T09:55:47.056Z,81.35
2018-11-13T09:58:15.562Z,81.23
2018-11-13T10:00:44.156Z,82.02
2018-11-13T10:03:13.115Z,80.78
2018-11-13T10:05:41.136Z,80.29
2018-11-13T10:08:09.454Z,80.22
2018-11-13T10:10:37.960Z,79.69
2018-11-13T10:13:06.399Z,78.77
2018-11-13T10:15:34.859Z,79.48
2018-11-13T10:18:03.411Z,78.81
2018-11-13T10:20:31.697Z,79.69
2018-11-13T10:23:00.473Z,78.47
2018-11-13T10:25:28.888Z,78.29
2018-11-13T10:27:57.372Z,77.95
2018-11-13T10:30:26.143Z,78.35
2018-11-13T10:32:55.172Z,78.69
2018-11-13T10:35:24.940Z,78.21
2018-11-13T10:37:53.462Z,75.90
2018-11-13T10:40:22.664Z,76.09
2018-11-13T10:42:51.729Z,75.89
2018-11-13T10:45:22.102Z,77.00
2018-11-13T10:47:51.544Z,75.70
2018-11-13T10:50:21.761Z,76.68
2018-11-13T10:52:50.236Z,75.74
2018-11-13T10:55:18.712Z,74.78
2018-11-13T10:57:47.129Z,74.94
2018-11-13T11:00:21.537Z,74.44
2018-11-13T11:03:57.041Z,74.75
2018-11-13T11:06:25.514Z,74.25
2018-11-13T11:08:54.510Z,74.13
2018-11-13T11:11:22.925Z,75.21
2018-11-13T11:13:53.281Z,75.70
2018-11-13T11:16:21.939Z,74.08
2018-11-13T11:18:51.045Z,74.27
2018-11-13T11:21:19.389Z,74.55
2018-11-13T11:23:48.008Z,74.59
2018-11-13T11:26:16.357Z,73.61
2018-11-13T11:28:44.847Z,74.75
2018-11-13T11:31:13.297Z,74.40
2018-11-13T11:33:41.726Z,74.89
2018-11-13T11:36:10.144Z,74.03
2018-11-13T11:38:38.686Z,74.61
2018-11-13T11:41:07.152Z,74.66
2018-11-13T11:43:35.657Z,74.45
2018-11-13T11:46:04.096Z,73.85
2018-11-13T11:48:32.565Z,74.00
2018-11-13T11:51:01.013Z,74.41
2018-11-13T11:53:29.441Z,74.61
2018-11-13T11:55:57.896Z,73.45
2018-11-13T11:58:26.390Z,74.38
2018-11-13T12:00:54.816Z,74.10
2018-11-13T12:03:23.291Z,74.44
2018-11-13T12:05:51.709Z,74.08
2018-11-13T12:08:20.165Z,74.57
2018-11-13T12:10:48.567Z,73.89
2018-11-13T12:13:17.037Z,74.36
2018-11-13T12:15:45.478Z,73.71
2018-11-13T12:18:13.969Z,73.92
2018-11-13T12:20:42.425Z,73.65
2018-11-13T12:23:10.845Z,73.02
2018-11-13T12:25:39.314Z,73.95
2018-11-13T12:28:07.734Z,73.06
2018-11-13T12:30:36.298Z,73.04
2018-11-13T12:33:05.348Z,73.75
2018-11-13T12:35:33.776Z,72.92
2018-11-13T12:38:02.218Z,74.72
2018-11-13T12:40:30.712Z,74.07
2018-11-13T12:42:59.187Z,73.77
2018-11-13T12:45:27.726Z,74.50
2018-11-13T12:47:56.162Z,74.89
2018-11-13T12:50:24.641Z,72.42
2018-11-13T12:52:53.045Z,72.92
2018-11-13T12:55:22.932Z,74.04
2018-11-13T12:57:51.480Z,72.85
2018-11-13T13:00:22.996Z,73.68
2018-11-13T13:02:51.584Z,73.54
2018-11-13T13:05:20.104Z,73.17
2018-11-13T13:07:48.505Z,73.64
2018-11-13T13:10:18.225Z,73.42
2018-11-13T13:12:46.714Z,73.61
2018-11-13T13:15:16.461Z,73.68
2018-11-13T13:17:45.322Z,73.91
2018-11-13T13:20:16.333Z,72.72
2018-11-13T13:22:45.980Z,72.20
2018-11-13T13:25:15.752Z,71.94
2018-11-13T13:27:44.215Z,72.95
2018-11-13T13:30:16.922Z,73.24
2018-11-13T13:32:46.382Z,73.90
2018-11-13T13:35:48.904Z,72.45
2018-11-13T13:38:17.413Z,71.90
2018-11-13T13:40:47.238Z,71.74
2018-11-13T13:43:16.183Z,72.24
2018-11-13T13:45:45.886Z,72.99
2018-11-13T13:48:14.544Z,72.83
2018-11-13T13:50:43.925Z,73.58
2018-11-13T13:53:13.481Z,74.22
2018-11-13T13:55:42.356Z,74.34
2018-11-13T13:58:11.136Z,74.10
2018-11-13T14:00:39.591Z,74.77
2018-11-13T14:03:09.178Z,74.23
2018-11-13T14:05:37.870Z,74.34
2018-11-13T14:08:06.978Z,73.21
2018-11-13T14:10:35.560Z,73.45
2018-11-13T14:13:04.048Z,72.32
2018-11-13T14:15:32.508Z,73.53
2018-11-13T14:18:00.950Z,72.79
2018-11-13T14:20:29.480Z,73.10
2018-11-13T14:22:57.967Z,72.42
2018-11-13T14:25:26.484Z,73.49
2018-11-13T14:27:54.952Z,72.86
2018-11-13T14:33:11.140Z,73.75
2018-11-13T14:35:39.748Z,73.62
2018-11-13T14:38:08.107Z,73.63
2018-11-13T14:40:45.085Z,74.83
2018-11-13T14:43:14.730Z,75.78
2018-11-13T14:45:43.622Z,75.75
2018-11-13T14:48:12.616Z,75.11
2018-11-13T14:50:41.493Z,75.00
2018-11-13T14:53:10.559Z,75.44
2018-11-13T14:55:40.541Z,74.61
2018-11-13T14:58:10.445Z,75.62
2018-11-13T15:00:39.452Z,75.62
2018-11-13T15:03:09.333Z,74.79
2018-11-13T15:05:37.885Z,75.23
2018-11-13T15:08:07.568Z,75.49
2018-11-13T15:10:41.686Z,76.28
2018-11-13T15:13:10.672Z,76.59
2018-11-13T15:15:39.117Z,76.50
2018-11-13T15:18:07.893Z,77.30
2018-11-13T15:20:36.444Z,78.09
2018-11-13T15:23:05.761Z,76.68
2018-11-13T15:25:34.263Z,76.86
2018-11-13T15:28:02.756Z,76.84
2018-11-13T15:30:32.832Z,76.85
2018-11-13T15:33:02.799Z,76.99
2018-11-13T15:35:31.273Z,76.29
2018-11-13T15:37:59.705Z,76.10
2018-11-13T15:40:29.416Z,76.12
2018-11-13T15:42:57.850Z,76.12
2018-11-13T15:45:26.457Z,76.74
2018-11-13T15:47:56.104Z,76.20
2018-11-13T15:50:26.040Z,76.41
2018-11-13T15:52:54.807Z,77.49
2018-11-13T15:55:23.333Z,76.60
2018-11-13T15:57:51.933Z,77.31
2018-11-13T16:00:28.028Z,76.88
2018-11-13T16:02:57.583Z,77.36
2018-11-13T16:05:38.832Z,76.81
2018-11-13T16:08:08.123Z,77.16
2018-11-13T16:10:36.723Z,77.58
2018-11-13T16:13:05.337Z,77.97
2018-11-13T16:15:33.934Z,77.82
2018-11-13T16:18:03.737Z,78.02
2018-11-13T16:20:32.204Z,78.16
2018-11-13T16:23:00.640Z,78.10
2018-11-13T16:25:29.185Z,79.08
2018-11-13T16:27:57.593Z,79.62
2018-11-13T16:30:27.554Z,79.55
2018-11-13T16:32:56.032Z,80.03
2018-11-13T16:35:25.637Z,80.89
2018-11-13T16:37:55.132Z,80.98
2018-11-13T16:40:25.724Z,81.85
2018-11-13T16:42:54.343Z,81.26
2018-11-13T16:45:23.833Z,81.19
2018-11-13T16:47:53.715Z,81.23
2018-11-13T16:50:25.634Z,80.31
2018-11-13T16:52:54.920Z,81.60
2018-11-13T16:55:28.688Z,81.37
2018-11-13T16:57:59.033Z,81.10
2018-11-13T17:00:27.528Z,81.37
2018-11-13T17:02:56.196Z,81.51
2018-11-13T17:05:26.021Z,82.81
2018-11-13T17:07:54.415Z,82.52
2018-11-13T17:10:24.301Z,83.07
2018-11-13T17:12:54.217Z,82.33
2018-11-13T17:15:24.818Z,83.00
2018-11-13T17:17:54.252Z,83.30
2018-11-13T17:20:22.768Z,84.34
2018-11-13T17:22:51.697Z,83.69
2018-11-13T17:25:21.694Z,84.85
2018-11-13T17:27:51.277Z,83.64
2018-11-13T17:30:22.429Z,84.06
2018-11-13T17:32:51.456Z,84.53
2018-11-13T17:35:21.254Z,83.81
2018-11-13T17:37:50.475Z,84.37
2018-11-13T17:40:20.539Z,84.54
2018-11-13T17:42:49.985Z,84.83
2018-11-13T17:45:29.407Z,84.67
2018-11-13T17:47:58.125Z,85.19
2018-11-13T17:50:28.066Z,85.61
2018-11-13T17:52:57.560Z,85.42
2018-11-13T17:55:26.203Z,84.96
2018-11-13T17:57:56.123Z,85.28
2018-11-13T18:00:27.107Z,84.86
2018-11-13T18:02:55.673Z,85.75
2018-11-13T18:05:25.183Z,85.84
2018-11-13T18:07:56.480Z,85.55
2018-11-13T18:10:25.468Z,86.21
2018-11-13T18:12:53.939Z,86.53
2018-11-13T18:15:24.706Z,86.12
2018-11-13T18:17:53.208Z,87.12
2018-11-13T18:20:25.011Z,86.51
2018-11-13T18:22:53.568Z,87.58
2018-11-13T18:25:22.031Z,86.40
2018-11-13T18:27:52.796Z,87.04
2018-11-13T18:30:37.887Z,87.17
2018-11-13T18:33:06.957Z,86.73
2018-11-13T18:35:36.987Z,87.56
2018-11-13T18:38:11.532Z,87.53
2018-11-13T18:40:40.022Z,87.78
2018-11-13T18:43:08.612Z,87.29
2018-11-13T18:45:38.773Z,87.53
2018-11-13T18:48:07.621Z,88.22
2018-11-13T18:50:45.479Z,87.35
2018-11-13T18:53:13.977Z,87.84
2018-11-13T18:55:42.878Z,88.55
2018-11-13T18:58:11.386Z,88.59
2018-11-13T19:00:42.001Z,87.91
2018-11-13T19:03:11.620Z,87.80
2018-11-13T19:05:40.433Z,88.45
2018-11-13T19:08:09.669Z,88.54
2018-11-13T19:10:41.717Z,89.08
2018-11-13T19:13:12.863Z,88.36
2018-11-13T19:15:43.895Z,89.20
2018-11-13T19:18:12.810Z,89.02
2018-11-13T19:20:41.519Z,89.12
2018-11-13T19:23:10.181Z,89.26
2018-11-13T19:25:39.220Z,89.75
2018-11-13T19:28:07.664Z,89.56
2018-11-13T19:30:36.154Z,89.57
2018-11-13T19:33:04.666Z,88.48
2018-11-13T19:35:33.236Z,89.52
2018-11-13T19:38:01.590Z,89.21
2018-11-13T19:40:31.661Z,89.37
2018-11-13T19:43:00.708Z,88.65
2018-11-13T19:45:29.160Z,89.15
2018-11-13T19:47:57.673Z,89.04
2018-11-13T19:50:28.393Z,88.89
2018-11-13T19:52:56.955Z,88.96
2018-11-13T19:55:25.974Z,89.24
2018-11-13T19:57:54.545Z,89.54
2018-11-13T20:00:38.259Z,89.57
2018-11-13T20:03:08.004Z,89.17
2018-11-13T20:05:36.455Z,88.88
2018-11-13T20:08:05.412Z,88.94
2018-11-13T20:10:34.802Z,88.82
2018-11-13T20:13:04.400Z,88.84
2018-11-13T20:15:33.638Z,88.51
2018-11-13T20:18:02.098Z,89.06
2018-11-13T20:20:31.647Z,89.55
2018-11-13T20:23:01.137Z,89.46
2018-11-13T20:25:31.092Z,88.79
2018-11-13T20:27:59.554Z,89.70
2018-11-13T20:30:30.082Z,89.83
2018-11-13T20:32:58.533Z,90.05
2018-11-13T20:35:27.092Z,89.91
2018-11-13T20:37:56.232Z,88.88
2018-11-13T20:40:28.313Z,88.98
2018-11-13T20:42:58.087Z,89.27
2018-11-13T20:45:26.545Z,89.23
2018-11-13T20:47:55.106Z,89.25
2018-11-13T20:50:25.872Z,89.60
2018-11-13T20:52:54.347Z,89.25
2018-11-13T20:55:22.829Z,89.74
2018-11-13T20:57:51.263Z,90.47
2018-11-13T21:00:22.065Z,90.44
2018-11-13T21:02:50.593Z,91.12
2018-11-13T21:05:19.186Z,89.97
2018-11-13T21:07:47.621Z,89.84
2018-11-13T21:10:18.091Z,89.71
2018-11-13T21:12:46.523Z,90.15
2018-11-13T21:15:16.359Z,89.38
2018-11-13T21:17:44.825Z,90.68
2018-11-13T21:20:15.781Z,89.87
2018-11-13T21:22:44.287Z,90.14
2018-11-13T21:25:14.266Z,89.98
2018-11-13T21:27:43.714Z,90.56
2018-11-13T21:30:14.732Z,90.18
2018-11-13T21:32:44.109Z,90.76
2018-11-13T21:35:12.997Z,90.79
2018-11-13T21:37:42.696Z,90.12
2018-11-13T21:40:13.181Z,91.22
2018-11-13T21:42:41.784Z,90.73
2018-11-13T21:45:11.135Z,90.78
2018-11-13T21:47:39.643Z,91.10
2018-11-13T21:50:11.194Z,91.01
2018-11-13T21:52:39.698Z,90.95
2018-11-13T21:55:10.034Z,90.67
2018-11-13T21:57:38.466Z,91.27
2018-11-13T22:00:15.335Z,90.98
2018-11-13T22:02:46.290Z,91.58
2018-11-13T22:05:14.688Z,91.37
2018-11-13T22:07:43.188Z,91.23
2018-11-13T22:10:12.233Z,91.38
2018-11-13T22:12:40.724Z,90.54
2018-11-13T22:15:12.098Z,91.18
2018-11-13T22:17:40.240Z,90.43
2018-11-13T22:20:10.123Z,91.61
2018-11-13T22:22:38.924Z,91.55
2018-11-13T22:25:09.917Z,91.36
2018-11-13T22:27:38.543Z,91.61
2018-11-13T22:30:08.215Z,91.95
2018-11-13T22:32:36.743Z,91.51
2018-11-13T22:35:06.514Z,90.79
2018-11-13T22:37:34.999Z,91.28
2018-11-13T22:40:03.602Z,91.78
2018-11-13T22:42:32.036Z,91.06
2018-11-13T22:45:00.488Z,91.33
2018-11-13T22:47:28.913Z,90.82
2018-11-13T22:49:57.394Z,91.16
2018-11-13T22:52:25.813Z,91.14
2018-11-13T22:54:54.382Z,91.51
2018-11-13T22:57:22.792Z,91.67
2018-11-13T22:59:51.602Z,91.21
2018-11-13T23:02:20.073Z,91.18
2018-11-13T23:04:48.484Z,91.89
2018-11-13T23:07:16.902Z,91.59
2018-11-13T23:09:45.325Z,92.04
2018-11-13T23:12:13.717Z,91.43
2018-11-13T23:14:42.180Z,91.65
2018-11-13T23:17:10.634Z,91.67
2018-11-13T23:19:39.109Z,91.92
2018-11-13T23:22:07.535Z,92.14
2018-11-13T23:24:35.931Z,92.18
2018-11-13T23:27:05.034Z,92.76
2018-11-13T23:29:33.477Z,91.98
2018-11-13T23:32:02.114Z,91.96
2018-11-13T23:34:30.355Z,92.73
2018-11-13T23:36:58.898Z,91.84
2018-11-13T23:39:27.341Z,92.81
2018-11-13T23:41:55.815Z,92.54
2018-11-13T23:44:24.290Z,92.42
2018-11-13T23:46:52.689Z,92.10
2018-11-13T23:49:21.146Z,92.50
2018-11-13T23:51:49.546Z,92.74
2018-11-13T23:54:17.909Z,92.29
2018-11-13T23:56:46.362Z,92.45
2018-11-13T23:59:14.805Z,92.95
